sensor_id;sensor_type;location;lat;lon;timestamp;pressure;altitude;pressure_sealevel;temperature;humidity
10510;BME280;5303;53.266;10.410;2022-09-29T00:00:52;99740.13;;;7.43;100.00
10510;BME280;5303;53.266;10.410;2022-09-29T00:03:18;99737.91;;;7.46;100.00
10510;BME280;5303;53.266;10.410;2022-09-29T00:05:49;99739.94;;;7.44;100.00
10510;BME280;5303;53.266;10.410;2022-09-29T00:08:16;99740.63;;;7.46;100.00
10510;BME280;5303;53.266;10.410;2022-09-29T00:10:41;99734.72;;;7.43;100.00
10510;BME280;5303;53.266;10.410;2022-09-29T00:13:07;99731.09;;;7.51;100.00
10510;BME280;5303;53.266;10.410;2022-09-29T00:15:32;99735.31;;;7.53;100.00
10510;BME280;5303;53.266;10.410;2022-09-29T00:17:57;99735.63;;;7.35;100.00
10510;BME280;5303;53.266;10.410;2022-09-29T00:20:22;99741.56;;;7.31;100.00
10510;BME280;5303;53.266;10.410;2022-09-29T00:22:49;99745.47;;;7.28;100.00
10510;BME280;5303;53.266;10.410;2022-09-29T00:25:16;99740.88;;;7.29;100.00
10510;BME280;5303;53.266;10.410;2022-09-29T00:27:41;99741.44;;;7.24;100.00
10510;BME280;5303;53.266;10.410;2022-09-29T00:30:06;99742.47;;;7.23;100.00
10510;BME280;5303;53.266;10.410;2022-09-29T00:32:32;99745.13;;;7.31;100.00
10510;BME280;5303;53.266;10.410;2022-09-29T00:34:57;99739.91;;;7.21;100.00
10510;BME280;5303;53.266;10.410;2022-09-29T00:37:22;99740.47;;;7.17;100.00
10510;BME280;5303;53.266;10.410;2022-09-29T00:39:47;99739.44;;;7.18;100.00
10510;BME280;5303;53.266;10.410;2022-09-29T00:42:17;99742.16;;;7.18;100.00
10510;BME280;5303;53.266;10.410;2022-09-29T00:45:11;99741.97;;;7.19;100.00
10510;BME280;5303;53.266;10.410;2022-09-29T00:47:39;99731.66;;;7.15;100.00
10510;BME280;5303;53.266;10.410;2022-09-29T00:50:17;99739.75;;;7.23;100.00
10510;BME280;5303;53.266;10.410;2022-09-29T00:52:50;99739.28;;;7.19;100.00
10510;BME280;5303;53.266;10.410;2022-09-29T00:55:28;99742.94;;;7.27;100.00
10510;BME280;5303;53.266;10.410;2022-09-29T00:58:10;99736.97;;;7.31;100.00
10510;BME280;5303;53.266;10.410;2022-09-29T01:00:37;99739.19;;;7.36;100.00
10510;BME280;5303;53.266;10.410;2022-09-29T01:03:06;99737.31;;;7.36;100.00
10510;BME280;5303;53.266;10.410;2022-09-29T01:05:37;99733.56;;;7.37;100.00
10510;BME280;5303;53.266;10.410;2022-09-29T01:08:12;99726.81;;;7.33;100.00
10510;BME280;5303;53.266;10.410;2022-09-29T01:10:40;99740.50;;;7.40;100.00
10510;BME280;5303;53.266;10.410;2022-09-29T01:13:05;99735.91;;;7.40;100.00
10510;BME280;5303;53.266;10.410;2022-09-29T01:15:31;99736.94;;;7.39;100.00
10510;BME280;5303;53.266;10.410;2022-09-29T01:17:57;99745.69;;;7.50;100.00
10510;BME280;5303;53.266;10.410;2022-09-29T01:20:23;99735.50;;;7.52;100.00
10510;BME280;5303;53.266;10.410;2022-09-29T01:23:18;99743.09;;;7.56;100.00
10510;BME280;5303;53.266;10.410;2022-09-29T01:26:18;99743.41;;;7.61;100.00
10510;BME280;5303;53.266;10.410;2022-09-29T01:31:44;99734.66;;;7.51;100.00
10510;BME280;5303;53.266;10.410;2022-09-29T01:34:21;99736.22;;;7.45;100.00
10510;BME280;5303;53.266;10.410;2022-09-29T01:40:02;99737.19;;;7.53;100.00
10510;BME280;5303;53.266;10.410;2022-09-29T01:42:35;99747.59;;;7.64;100.00
10510;BME280;5303;53.266;10.410;2022-09-29T01:47:49;99745.19;;;7.69;100.00
10510;BME280;5303;53.266;10.410;2022-09-29T01:50:27;99744.53;;;7.67;100.00
10510;BME280;5303;53.266;10.410;2022-09-29T01:53:00;99741.28;;;7.72;100.00
10510;BME280;5303;53.266;10.410;2022-09-29T01:55:30;99738.59;;;7.72;100.00
10510;BME280;5303;53.266;10.410;2022-09-29T01:58:00;99742.59;;;7.76;100.00
10510;BME280;5303;53.266;10.410;2022-09-29T02:00:28;99741.56;;;7.77;100.00
10510;BME280;5303;53.266;10.410;2022-09-29T02:03:14;99735.41;;;7.68;100.00
10510;BME280;5303;53.266;10.410;2022-09-29T02:05:47;99734.91;;;7.64;100.00
10510;BME280;5303;53.266;10.410;2022-09-29T02:08:20;99738.81;;;7.62;100.00
10510;BME280;5303;53.266;10.410;2022-09-29T02:10:56;99737.44;;;7.66;100.00
10510;BME280;5303;53.266;10.410;2022-09-29T02:13:23;99738.94;;;7.68;100.00
10510;BME280;5303;53.266;10.410;2022-09-29T02:15:51;99734.66;;;7.74;100.00
10510;BME280;5303;53.266;10.410;2022-09-29T02:18:22;99736.81;;;7.79;100.00
10510;BME280;5303;53.266;10.410;2022-09-29T02:20:48;99730.97;;;7.90;100.00
10510;BME280;5303;53.266;10.410;2022-09-29T02:23:15;99733.13;;;7.94;100.00
10510;BME280;5303;53.266;10.410;2022-09-29T02:25:40;99736.44;;;8.05;100.00
10510;BME280;5303;53.266;10.410;2022-09-29T02:28:08;99734.56;;;8.05;100.00
10510;BME280;5303;53.266;10.410;2022-09-29T02:30:34;99740.72;;;7.99;100.00
10510;BME280;5303;53.266;10.410;2022-09-29T02:32:59;99738.00;;;7.99;100.00
10510;BME280;5303;53.266;10.410;2022-09-29T02:35:33;99738.00;;;7.99;100.00
10510;BME280;5303;53.266;10.410;2022-09-29T02:38:29;99746.81;;;8.01;100.00
10510;BME280;5303;53.266;10.410;2022-09-29T02:41:06;99743.56;;;8.06;100.00
10510;BME280;5303;53.266;10.410;2022-09-29T02:43:59;99748.41;;;8.10;100.00
10510;BME280;5303;53.266;10.410;2022-09-29T02:51:45;99754.41;;;8.06;100.00
10510;BME280;5303;53.266;10.410;2022-09-29T03:02:15;99756.44;;;8.04;100.00
10510;BME280;5303;53.266;10.410;2022-09-29T03:04:46;99750.09;;;8.11;100.00
10510;BME280;5303;53.266;10.410;2022-09-29T03:07:12;99744.88;;;8.10;100.00
10510;BME280;5303;53.266;10.410;2022-09-29T03:09:37;99750.66;;;8.07;100.00
10510;BME280;5303;53.266;10.410;2022-09-29T03:12:03;99748.97;;;8.06;100.00
10510;BME280;5303;53.266;10.410;2022-09-29T03:14:28;99747.75;;;8.08;100.00
10510;BME280;5303;53.266;10.410;2022-09-29T03:16:54;99748.41;;;8.10;100.00
10510;BME280;5303;53.266;10.410;2022-09-29T03:19:19;99754.69;;;8.11;100.00
10510;BME280;5303;53.266;10.410;2022-09-29T03:21:44;99749.25;;;8.11;100.00
10510;BME280;5303;53.266;10.410;2022-09-29T03:24:09;99753.00;;;8.10;100.00
10510;BME280;5303;53.266;10.410;2022-09-29T03:26:35;99756.97;;;7.99;100.00
10510;BME280;5303;53.266;10.410;2022-09-29T03:29:00;99753.63;;;7.97;100.00
10510;BME280;5303;53.266;10.410;2022-09-29T03:31:25;99752.41;;;7.77;100.00
10510;BME280;5303;53.266;10.410;2022-09-29T03:33:50;99750.25;;;7.72;100.00
10510;BME280;5303;53.266;10.410;2022-09-29T03:36:16;99751.56;;;7.76;100.00
10510;BME280;5303;53.266;10.410;2022-09-29T03:38:41;99754.28;;;7.76;100.00
10510;BME280;5303;53.266;10.410;2022-09-29T03:41:08;99747.19;;;7.75;100.00
10510;BME280;5303;53.266;10.410;2022-09-29T03:43:33;99754.84;;;7.72;100.00
10510;BME280;5303;53.266;10.410;2022-09-29T03:45:59;99757.34;;;7.73;100.00
10510;BME280;5303;53.266;10.410;2022-09-29T03:48:24;99761.59;;;7.76;100.00
10510;BME280;5303;53.266;10.410;2022-09-29T03:50:54;99762.03;;;7.64;100.00
10510;BME280;5303;53.266;10.410;2022-09-29T03:53:19;99767.13;;;7.59;100.00
10510;BME280;5303;53.266;10.410;2022-09-29T03:55:45;99765.31;;;7.52;100.00
10510;BME280;5303;53.266;10.410;2022-09-29T03:58:11;99771.13;;;7.40;100.00
10510;BME280;5303;53.266;10.410;2022-09-29T04:00:36;99770.50;;;7.38;100.00
10510;BME280;5303;53.266;10.410;2022-09-29T04:03:02;99775.09;;;7.30;100.00
10510;BME280;5303;53.266;10.410;2022-09-29T04:05:29;99775.25;;;7.28;100.00
10510;BME280;5303;53.266;10.410;2022-09-29T04:07:54;99773.03;;;7.32;100.00
10510;BME280;5303;53.266;10.410;2022-09-29T04:10:19;99771.84;;;7.34;100.00
10510;BME280;5303;53.266;10.410;2022-09-29T04:12:45;99771.69;;;7.36;100.00
10510;BME280;5303;53.266;10.410;2022-09-29T04:15:10;99781.03;;;7.25;100.00
10510;BME280;5303;53.266;10.410;2022-09-29T04:17:35;99775.13;;;7.21;100.00
10510;BME280;5303;53.266;10.410;2022-09-29T04:20:01;99785.25;;;7.28;100.00
10510;BME280;5303;53.266;10.410;2022-09-29T04:22:26;99791.66;;;7.35;100.00
10510;BME280;5303;53.266;10.410;2022-09-29T04:24:51;99793.56;;;7.26;100.00
10510;BME280;5303;53.266;10.410;2022-09-29T04:27:18;99791.34;;;7.30;100.00
10510;BME280;5303;53.266;10.410;2022-09-29T04:29:43;99790.69;;;7.28;100.00
10510;BME280;5303;53.266;10.410;2022-09-29T04:32:09;99796.41;;;7.33;100.00
10510;BME280;5303;53.266;10.410;2022-09-29T04:34:34;99789.84;;;7.27;100.00
10510;BME280;5303;53.266;10.410;2022-09-29T04:37:00;99793.44;;;7.19;100.00
10510;BME280;5303;53.266;10.410;2022-09-29T04:39:26;99793.94;;;7.15;100.00
10510;BME280;5303;53.266;10.410;2022-09-29T04:41:51;99796.63;;;7.23;100.00
10510;BME280;5303;53.266;10.410;2022-09-29T04:44:17;99792.91;;;7.24;100.00
10510;BME280;5303;53.266;10.410;2022-09-29T04:46:44;99800.06;;;7.17;100.00
10510;BME280;5303;53.266;10.410;2022-09-29T04:49:09;99801.06;;;7.16;100.00
10510;BME280;5303;53.266;10.410;2022-09-29T04:51:34;99804.28;;;7.19;100.00
10510;BME280;5303;53.266;10.410;2022-09-29T04:54:00;99806.09;;;7.27;100.00
10510;BME280;5303;53.266;10.410;2022-09-29T04:56:25;99804.56;;;7.24;100.00
10510;BME280;5303;53.266;10.410;2022-09-29T04:58:55;99800.34;;;7.22;100.00
10510;BME280;5303;53.266;10.410;2022-09-29T05:01:20;99808.25;;;7.32;100.00
10510;BME280;5303;53.266;10.410;2022-09-29T05:03:46;99803.88;;;7.31;100.00
10510;BME280;5303;53.266;10.410;2022-09-29T05:06:11;99813.03;;;7.30;100.00
10510;BME280;5303;53.266;10.410;2022-09-29T05:08:36;99812.34;;;7.28;100.00
10510;BME280;5303;53.266;10.410;2022-09-29T05:11:04;99811.03;;;7.15;100.00
10510;BME280;5303;53.266;10.410;2022-09-29T05:13:29;99816.91;;;7.27;100.00
10510;BME280;5303;53.266;10.410;2022-09-29T05:15:55;99819.31;;;7.22;100.00
10510;BME280;5303;53.266;10.410;2022-09-29T05:18:21;99810.81;;;7.25;100.00
10510;BME280;5303;53.266;10.410;2022-09-29T05:20:46;99812.22;;;7.21;100.00
10510;BME280;5303;53.266;10.410;2022-09-29T05:23:11;99809.84;;;7.18;100.00
10510;BME280;5303;53.266;10.410;2022-09-29T05:25:37;99811.09;;;7.07;100.00
10510;BME280;5303;53.266;10.410;2022-09-29T05:28:02;99816.16;;;7.10;100.00
10510;BME280;5303;53.266;10.410;2022-09-29T05:30:28;99822.44;;;7.03;100.00
10510;BME280;5303;53.266;10.410;2022-09-29T05:32:53;99819.91;;;7.01;100.00
10510;BME280;5303;53.266;10.410;2022-09-29T05:35:18;99820.75;;;7.10;100.00
10510;BME280;5303;53.266;10.410;2022-09-29T05:37:44;99817.50;;;7.06;100.00
10510;BME280;5303;53.266;10.410;2022-09-29T05:40:09;99825.47;;;7.08;100.00
10510;BME280;5303;53.266;10.410;2022-09-29T05:42:35;99817.69;;;7.13;100.00
10510;BME280;5303;53.266;10.410;2022-09-29T05:45:00;99813.59;;;7.17;100.00
10510;BME280;5303;53.266;10.410;2022-09-29T05:47:25;99819.72;;;7.11;100.00
10510;BME280;5303;53.266;10.410;2022-09-29T05:49:51;99821.03;;;7.15;100.00
10510;BME280;5303;53.266;10.410;2022-09-29T05:52:16;99823.53;;;7.24;100.00
10510;BME280;5303;53.266;10.410;2022-09-29T05:54:41;99826.44;;;7.23;100.00
10510;BME280;5303;53.266;10.410;2022-09-29T05:57:06;99819.81;;;7.26;100.00
10510;BME280;5303;53.266;10.410;2022-09-29T05:59:32;99825.38;;;7.32;100.00
10510;BME280;5303;53.266;10.410;2022-09-29T06:01:57;99825.31;;;7.40;100.00
10510;BME280;5303;53.266;10.410;2022-09-29T06:04:22;99822.94;;;7.45;100.00
10510;BME280;5303;53.266;10.410;2022-09-29T06:06:47;99830.66;;;7.57;100.00
10510;BME280;5303;53.266;10.410;2022-09-29T06:09:13;99825.06;;;7.58;100.00
10510;BME280;5303;53.266;10.410;2022-09-29T06:11:38;99829.59;;;7.66;100.00
10510;BME280;5303;53.266;10.410;2022-09-29T06:14:04;99830.63;;;7.65;100.00
10510;BME280;5303;53.266;10.410;2022-09-29T06:16:30;99823.25;;;7.74;100.00
10510;BME280;5303;53.266;10.410;2022-09-29T06:18:57;99836.22;;;7.86;100.00
10510;BME280;5303;53.266;10.410;2022-09-29T06:21:25;99830.59;;;7.96;100.00
10510;BME280;5303;53.266;10.410;2022-09-29T06:23:53;99826.97;;;7.81;100.00
10510;BME280;5303;53.266;10.410;2022-09-29T06:26:19;99835.22;;;7.87;100.00
10510;BME280;5303;53.266;10.410;2022-09-29T06:28:45;99835.13;;;7.96;100.00
10510;BME280;5303;53.266;10.410;2022-09-29T06:31:13;99827.31;;;8.01;100.00
10510;BME280;5303;53.266;10.410;2022-09-29T06:33:39;99836.00;;;7.96;100.00
10510;BME280;5303;53.266;10.410;2022-09-29T06:38:58;99841.78;;;8.16;100.00
10510;BME280;5303;53.266;10.410;2022-09-29T06:41:23;99840.19;;;8.22;100.00
10510;BME280;5303;53.266;10.410;2022-09-29T06:43:48;99841.69;;;8.24;100.00
10510;BME280;5303;53.266;10.410;2022-09-29T06:46:14;99842.50;;;8.33;100.00
10510;BME280;5303;53.266;10.410;2022-09-29T06:48:39;99855.22;;;8.32;100.00
10510;BME280;5303;53.266;10.410;2022-09-29T06:51:08;99847.53;;;8.36;100.00
10510;BME280;5303;53.266;10.410;2022-09-29T06:53:33;99851.06;;;8.45;100.00
10510;BME280;5303;53.266;10.410;2022-09-29T06:55:59;99853.91;;;8.51;100.00
10510;BME280;5303;53.266;10.410;2022-09-29T06:58:26;99852.03;;;8.52;100.00
10510;BME280;5303;53.266;10.410;2022-09-29T07:00:51;99853.91;;;8.51;100.00
10510;BME280;5303;53.266;10.410;2022-09-29T07:03:17;99858.75;;;8.41;100.00
10510;BME280;5303;53.266;10.410;2022-09-29T07:05:42;99866.75;;;8.57;100.00
10510;BME280;5303;53.266;10.410;2022-09-29T07:08:08;99861.06;;;8.44;100.00
10510;BME280;5303;53.266;10.410;2022-09-29T07:10:33;99867.69;;;8.65;100.00
10510;BME280;5303;53.266;10.410;2022-09-29T07:12:59;99866.78;;;8.49;100.00
10510;BME280;5303;53.266;10.410;2022-09-29T07:15:25;99864.66;;;8.59;100.00
10510;BME280;5303;53.266;10.410;2022-09-29T07:17:56;99865.22;;;8.55;100.00
10510;BME280;5303;53.266;10.410;2022-09-29T07:20:23;99873.59;;;8.68;100.00
10510;BME280;5303;53.266;10.410;2022-09-29T07:22:49;99873.88;;;8.73;100.00
10510;BME280;5303;53.266;10.410;2022-09-29T07:25:14;99877.63;;;8.87;100.00
10510;BME280;5303;53.266;10.410;2022-09-29T07:27:39;99878.50;;;9.02;100.00
10510;BME280;5303;53.266;10.410;2022-09-29T07:30:05;99870.44;;;9.09;100.00
10510;BME280;5303;53.266;10.410;2022-09-29T07:32:30;99873.72;;;9.04;100.00
10510;BME280;5303;53.266;10.410;2022-09-29T07:34:57;99874.19;;;9.08;100.00
10510;BME280;5303;53.266;10.410;2022-09-29T07:37:22;99876.53;;;9.11;100.00
10510;BME280;5303;53.266;10.410;2022-09-29T07:39:48;99878.22;;;9.27;100.00
10510;BME280;5303;53.266;10.410;2022-09-29T07:42:13;99875.41;;;9.35;100.00
10510;BME280;5303;53.266;10.410;2022-09-29T07:44:38;99882.97;;;9.40;100.00
10510;BME280;5303;53.266;10.410;2022-09-29T07:47:04;99872.56;;;9.43;100.00
10510;BME280;5303;53.266;10.410;2022-09-29T07:49:29;99875.28;;;9.43;100.00
10510;BME280;5303;53.266;10.410;2022-09-29T07:51:54;99875.41;;;9.35;100.00
10510;BME280;5303;53.266;10.410;2022-09-29T07:54:20;99881.19;;;9.47;100.00
10510;BME280;5303;53.266;10.410;2022-09-29T07:56:45;99882.41;;;9.59;100.00
10510;BME280;5303;53.266;10.410;2022-09-29T07:59:11;99887.53;;;9.69;100.00
10510;BME280;5303;53.266;10.410;2022-09-29T08:01:36;99882.00;;;9.77;100.00
10510;BME280;5303;53.266;10.410;2022-09-29T08:04:02;99885.56;;;9.77;100.00
10510;BME280;5303;53.266;10.410;2022-09-29T08:06:27;99888.34;;;9.84;100.00
10510;BME280;5303;53.266;10.410;2022-09-29T08:08:53;99890.38;;;9.97;100.00
10510;BME280;5303;53.266;10.410;2022-09-29T08:11:19;99899.59;;;9.96;100.00
10510;BME280;5303;53.266;10.410;2022-09-29T08:13:46;99892.94;;;9.98;100.00
10510;BME280;5303;53.266;10.410;2022-09-29T08:16:13;99896.94;;;10.02;100.00
10510;BME280;5303;53.266;10.410;2022-09-29T08:18:40;99893.88;;;9.91;100.00
10510;BME280;5303;53.266;10.410;2022-09-29T08:21:05;99895.44;;;10.00;100.00
10510;BME280;5303;53.266;10.410;2022-09-29T08:23:38;99900.13;;;10.06;100.00
10510;BME280;5303;53.266;10.410;2022-09-29T08:26:09;99902.19;;;10.04;100.00
10510;BME280;5303;53.266;10.410;2022-09-29T08:28:36;99904.34;;;10.09;100.00
10510;BME280;5303;53.266;10.410;2022-09-29T08:31:11;99901.31;;;10.18;100.00
10510;BME280;5303;53.266;10.410;2022-09-29T08:33:37;99912.75;;;10.29;100.00
10510;BME280;5303;53.266;10.410;2022-09-29T08:36:03;99908.84;;;10.38;100.00
10510;BME280;5303;53.266;10.410;2022-09-29T08:38:32;99913.38;;;10.52;100.00
10510;BME280;5303;53.266;10.410;2022-09-29T08:41:02;99916.75;;;10.54;100.00
10510;BME280;5303;53.266;10.410;2022-09-29T08:43:36;99919.53;;;10.61;100.00
10510;BME280;5303;53.266;10.410;2022-09-29T08:46:08;99914.16;;;10.67;100.00
10510;BME280;5303;53.266;10.410;2022-09-29T08:48:38;99922.25;;;10.82;100.00
10510;BME280;5303;53.266;10.410;2022-09-29T08:52:00;99927.97;;;10.94;100.00
10510;BME280;5303;53.266;10.410;2022-09-29T08:54:14;99919.72;;;11.09;100.00
10510;BME280;5303;53.266;10.410;2022-09-29T08:56:42;99922.56;;;11.29;100.00
10510;BME280;5303;53.266;10.410;2022-09-29T08:59:09;99920.72;;;11.36;100.00
10510;BME280;5303;53.266;10.410;2022-09-29T09:04:45;99928.13;;;11.49;100.00
10510;BME280;5303;53.266;10.410;2022-09-29T09:15:45;99927.63;;;11.66;100.00
10510;BME280;5303;53.266;10.410;2022-09-29T09:18:30;99928.09;;;11.77;100.00
10510;BME280;5303;53.266;10.410;2022-09-29T09:21:27;99922.13;;;11.95;100.00
10510;BME280;5303;53.266;10.410;2022-09-29T09:24:04;99927.19;;;12.04;100.00
10510;BME280;5303;53.266;10.410;2022-09-29T09:26:39;99927.63;;;12.15;100.00
10510;BME280;5303;53.266;10.410;2022-09-29T09:29:24;99924.88;;;12.01;100.00
10510;BME280;5303;53.266;10.410;2022-09-29T09:34:27;99921.34;;;12.14;100.00
10510;BME280;5303;53.266;10.410;2022-09-29T09:37:19;99926.38;;;12.17;100.00
10510;BME280;5303;53.266;10.410;2022-09-29T09:42:20;99929.31;;;12.22;100.00
10510;BME280;5303;53.266;10.410;2022-09-29T09:44:55;99914.84;;;12.28;100.00
10510;BME280;5303;53.266;10.410;2022-09-29T09:49:54;99920.34;;;12.42;100.00
10510;BME280;5303;53.266;10.410;2022-09-29T09:52:26;99919.50;;;12.41;100.00
10510;BME280;5303;53.266;10.410;2022-09-29T09:54:55;99919.09;;;12.64;100.00
10510;BME280;5303;53.266;10.410;2022-09-29T09:57:26;99917.25;;;12.71;100.00
10510;BME280;5303;53.266;10.410;2022-09-29T10:02:25;99920.38;;;12.95;100.00
10510;BME280;5303;53.266;10.410;2022-09-29T10:04:51;99927.34;;;12.91;100.00
10510;BME280;5303;53.266;10.410;2022-09-29T10:07:19;99925.63;;;13.16;100.00
10510;BME280;5303;53.266;10.410;2022-09-29T10:09:45;99927.50;;;13.22;100.00
10510;BME280;5303;53.266;10.410;2022-09-29T10:12:16;99925.22;;;13.19;100.00
10510;BME280;5303;53.266;10.410;2022-09-29T10:14:49;99930.47;;;13.27;100.00
10510;BME280;5303;53.266;10.410;2022-09-29T10:17:18;99934.06;;;13.28;100.00
10510;BME280;5303;53.266;10.410;2022-09-29T10:20:02;99929.84;;;13.05;100.00
10510;BME280;5303;53.266;10.410;2022-09-29T10:22:30;99937.84;;;13.14;100.00
10510;BME280;5303;53.266;10.410;2022-09-29T10:25:11;99944.78;;;13.16;100.00
10510;BME280;5303;53.266;10.410;2022-09-29T10:27:40;99948.97;;;13.19;100.00
10510;BME280;5303;53.266;10.410;2022-09-29T10:30:32;99941.63;;;13.33;100.00
10510;BME280;5303;53.266;10.410;2022-09-29T10:33:01;99947.94;;;13.40;100.00
10510;BME280;5303;53.266;10.410;2022-09-29T10:35:35;99960.13;;;13.44;100.00
10510;BME280;5303;53.266;10.410;2022-09-29T10:38:06;99960.34;;;13.42;100.00
10510;BME280;5303;53.266;10.410;2022-09-29T10:40:32;99955.06;;;13.41;100.00
10510;BME280;5303;53.266;10.410;2022-09-29T10:43:19;99958.03;;;13.46;100.00
10510;BME280;5303;53.266;10.410;2022-09-29T10:45:47;99960.13;;;13.44;100.00
10510;BME280;5303;53.266;10.410;2022-09-29T10:48:14;99960.94;;;13.51;100.00
10510;BME280;5303;53.266;10.410;2022-09-29T10:50:52;99962.81;;;13.57;100.00
10510;BME280;5303;53.266;10.410;2022-09-29T10:53:38;99974.78;;;13.76;100.00
10510;BME280;5303;53.266;10.410;2022-09-29T10:56:18;99967.63;;;13.82;100.00
10510;BME280;5303;53.266;10.410;2022-09-29T10:58:54;99963.59;;;13.91;100.00
10510;BME280;5303;53.266;10.410;2022-09-29T11:01:20;99964.44;;;13.85;100.00
10510;BME280;5303;53.266;10.410;2022-09-29T11:03:52;99969.09;;;13.84;100.00
10510;BME280;5303;53.266;10.410;2022-09-29T11:06:29;99971.81;;;13.84;100.00
10510;BME280;5303;53.266;10.410;2022-09-29T11:11:36;99969.47;;;13.94;100.00
10510;BME280;5303;53.266;10.410;2022-09-29T11:14:02;99975.38;;;13.91;100.00
10510;BME280;5303;53.266;10.410;2022-09-29T11:16:29;99967.06;;;14.11;100.00
10510;BME280;5303;53.266;10.410;2022-09-29T11:26:46;99978.31;;;14.41;100.00
10510;BME280;5303;53.266;10.410;2022-09-29T11:34:48;99979.63;;;14.32;100.00
10510;BME280;5303;53.266;10.410;2022-09-29T11:43:06;99980.44;;;14.78;100.00
10510;BME280;5303;53.266;10.410;2022-09-29T11:45:48;99979.78;;;15.07;100.00
10510;BME280;5303;53.266;10.410;2022-09-29T11:51:48;99986.75;;;15.10;100.00
10510;BME280;5303;53.266;10.410;2022-09-29T12:00:17;99986.84;;;14.97;100.00
10510;BME280;5303;53.266;10.410;2022-09-29T12:03:14;99987.75;;;14.90;100.00
10510;BME280;5303;53.266;10.410;2022-09-29T12:09:06;99991.31;;;14.91;100.00
10510;BME280;5303;53.266;10.410;2022-09-29T12:11:52;99990.50;;;15.16;100.00
10510;BME280;5303;53.266;10.410;2022-09-29T12:14:21;99987.97;;;15.14;100.00
10510;BME280;5303;53.266;10.410;2022-09-29T12:16:53;99987.91;;;15.21;100.00
10510;BME280;5303;53.266;10.410;2022-09-29T12:19:23;99982.81;;;15.24;100.00
10510;BME280;5303;53.266;10.410;2022-09-29T12:21:52;99982.94;;;15.36;100.00
10510;BME280;5303;53.266;10.410;2022-09-29T12:26:54;99981.72;;;15.32;100.00
10510;BME280;5303;53.266;10.410;2022-09-29T12:31:52;99984.38;;;15.38;100.00
10510;BME280;5303;53.266;10.410;2022-09-29T12:34:38;99985.03;;;15.34;100.00
10510;BME280;5303;53.266;10.410;2022-09-29T12:37:15;99985.84;;;15.41;100.00
10510;BME280;5303;53.266;10.410;2022-09-29T12:39:58;99979.03;;;15.44;100.00
10510;BME280;5303;53.266;10.410;2022-09-29T12:45:27;99981.78;;;15.44;100.00
10510;BME280;5303;53.266;10.410;2022-09-29T12:50:35;99981.41;;;15.40;100.00
10510;BME280;5303;53.266;10.410;2022-09-29T12:53:14;99990.97;;;15.31;100.00
10510;BME280;5303;53.266;10.410;2022-09-29T12:55:49;99988.47;;;15.29;100.00
10510;BME280;5303;53.266;10.410;2022-09-29T12:58:25;99992.69;;;15.32;100.00
10510;BME280;5303;53.266;10.410;2022-09-29T13:01:02;99984.16;;;15.40;100.00
10510;BME280;5303;53.266;10.410;2022-09-29T13:03:47;99993.19;;;15.22;100.00
10510;BME280;5303;53.266;10.410;2022-09-29T13:09:34;99991.50;;;15.21;100.00
10510;BME280;5303;53.266;10.410;2022-09-29T13:25:22;99995.56;;;15.62;100.00
10510;BME280;5303;53.266;10.410;2022-09-29T13:27:53;99995.56;;;15.62;100.00
10510;BME280;5303;53.266;10.410;2022-09-29T13:30:26;99993.56;;;15.51;100.00
10510;BME280;5303;53.266;10.410;2022-09-29T13:33:01;99997.03;;;15.40;100.00
10510;BME280;5303;53.266;10.410;2022-09-29T13:35:37;99998.31;;;15.37;100.00
10510;BME280;5303;53.266;10.410;2022-09-29T13:38:06;99993.63;;;15.44;100.00
10510;BME280;5303;53.266;10.410;2022-09-29T13:40:33;99995.50;;;15.44;100.00
10510;BME280;5303;53.266;10.410;2022-09-29T13:43:00;99998.72;;;15.41;100.00
10510;BME280;5303;53.266;10.410;2022-09-29T13:48:00;100000.41;;;15.42;100.00
10510;BME280;5303;53.266;10.410;2022-09-29T13:50:51;99994.47;;;15.45;100.00
10510;BME280;5303;53.266;10.410;2022-09-29T14:00:59;99995.94;;;15.22;100.00
10510;BME280;5303;53.266;10.410;2022-09-29T14:03:40;99998.88;;;15.21;100.00
10510;BME280;5303;53.266;10.410;2022-09-29T14:06:19;99988.97;;;15.20;100.00
10510;BME280;5303;53.266;10.410;2022-09-29T14:08:51;99998.56;;;15.35;100.00
10510;BME280;5303;53.266;10.410;2022-09-29T14:11:27;99999.63;;;15.34;100.00
10510;BME280;5303;53.266;10.410;2022-09-29T14:13:59;99991.88;;;15.25;100.00
10510;BME280;5303;53.266;10.410;2022-09-29T14:21:54;100000.09;;;15.31;100.00
10510;BME280;5303;53.266;10.410;2022-09-29T14:27:31;100001.38;;;15.29;100.00
10510;BME280;5303;53.266;10.410;2022-09-29T14:35:39;100003.66;;;15.32;100.00
10510;BME280;5303;53.266;10.410;2022-09-29T14:41:03;100001.09;;;15.12;100.00
10510;BME280;5303;53.266;10.410;2022-09-29T14:44:06;99996.19;;;15.14;100.00
10510;BME280;5303;53.266;10.410;2022-09-29T14:46:54;100010.25;;;14.99;100.00
10510;BME280;5303;53.266;10.410;2022-09-29T14:53:00;100020.59;;;14.97;100.00
10510;BME280;5303;53.266;10.410;2022-09-29T15:03:43;100039.97;;;14.71;100.00
10510;BME280;5303;53.266;10.410;2022-09-29T15:06:17;100041.31;;;14.55;100.00
10510;BME280;5303;53.266;10.410;2022-09-29T15:08:55;100043.38;;;14.59;100.00
10510;BME280;5303;53.266;10.410;2022-09-29T15:11:27;100037.50;;;14.56;100.00
10510;BME280;5303;53.266;10.410;2022-09-29T15:13:54;100042.59;;;14.52;100.00
10510;BME280;5303;53.266;10.410;2022-09-29T15:16:26;100042.16;;;14.49;100.00
10510;BME280;5303;53.266;10.410;2022-09-29T15:24:26;100053.16;;;14.35;100.00
10510;BME280;5303;53.266;10.410;2022-09-29T15:27:00;100050.47;;;14.29;100.00
10510;BME280;5303;53.266;10.410;2022-09-29T15:29:27;100060.38;;;14.23;100.00
10510;BME280;5303;53.266;10.410;2022-09-29T15:31:53;100059.56;;;14.16;100.00
10510;BME280;5303;53.266;10.410;2022-09-29T15:34:20;100057.44;;;14.11;100.00
10510;BME280;5303;53.266;10.410;2022-09-29T15:36:51;100069.66;;;14.15;100.00
10510;BME280;5303;53.266;10.410;2022-09-29T15:42:04;100092.69;;;13.74;100.00
10510;BME280;5303;53.266;10.410;2022-09-29T15:44:37;100088.06;;;13.68;100.00